Time;durP1;ratioP1;P1;durP2;ratioP2;P2;SDS_P1;SDS_P2;PMS_P1;PMS_P2;Temp;Humidity;BMP_temperature;BMP_pressure;BME280_temperature;BME280_humidity;BME280_pressure;Samples;Min_cycle;Max_cycle;Signal;HPM_P1;HPM_P2
2022/09/08 00:00:56;;;;;;;0.63;0.63;;;;;;;23.78;36.97;95397.69;5038839;28;20200;-61
2022/09/08 00:03:26;;;;;;;0.70;0.70;;;;;;;23.70;37.25;95395.88;5064954;28;20219;-60
2022/09/08 00:06:04;;;;;;;0.30;0.27;;;;;;;23.46;38.14;95391.16;5053645;28;20193;-63
2022/09/08 00:08:32;;;;;;;0.20;0.20;;;;;;;23.61;38.02;95400.50;5064819;28;20264;-62
2022/09/08 00:11:03;;;;;;;0.20;0.20;;;;;;;23.45;38.37;95394.94;5063575;28;20625;-63
2022/09/08 00:13:33;;;;;;;0.27;0.27;;;;;;;23.37;38.15;95406.47;5055215;28;20566;-61
2022/09/08 00:16:07;;;;;;;1.87;0.93;;;;;;;23.47;38.19;95394.59;5068310;28;20197;-60
2022/09/08 00:18:38;;;;;;;0.30;0.30;;;;;;;23.42;38.83;95400.13;5052919;28;20200;-60
2022/09/08 00:21:05;;;;;;;0.50;0.50;;;;;;;23.40;38.81;95408.50;5066225;28;20295;-60
2022/09/08 00:23:32;;;;;;;0.30;0.30;;;;;;;23.33;38.64;95402.09;5062098;28;20736;-61
2022/09/08 00:25:59;;;;;;;0.37;0.37;;;;;;;23.45;38.66;95410.22;5068075;28;20261;-62
2022/09/08 00:28:26;;;;;;;0.20;0.20;;;;;;;23.35;38.58;95410.56;5048098;28;20227;-62
2022/09/08 00:30:56;;;;;;;0.50;0.50;;;;;;;23.30;39.04;95410.75;5057616;28;20212;-63
2022/09/08 00:33:23;;;;;;;0.57;0.57;;;;;;;23.17;38.80;95397.25;5058008;28;20192;-62
2022/09/08 00:35:51;;;;;;;0.10;0.10;;;;;;;23.28;38.61;95399.56;5058343;28;20192;-60
2022/09/08 00:38:22;;;;;;;0.93;0.93;;;;;;;23.34;39.10;95403.66;5072068;28;20215;-62
2022/09/08 00:40:51;;;;;;;0.50;0.50;;;;;;;23.35;38.74;95400.66;5047938;28;20213;-61
2022/09/08 00:43:52;;;;;;;1.00;0.83;;;;;;;23.39;38.49;95400.81;5036191;28;20236;-62
2022/09/08 00:46:24;;;;;;;0.53;0.53;;;;;;;23.47;38.46;95398.06;5035561;28;20237;-62
2022/09/08 00:49:08;;;;;;;0.60;0.60;;;;;;;23.30;38.50;95402.75;5040155;28;20192;-63
2022/09/08 00:51:39;;;;;;;0.20;0.20;;;;;;;23.29;38.33;95409.97;5040016;28;20703;-62
2022/09/08 00:54:05;;;;;;;0.23;0.23;;;;;;;22.62;38.54;95409.88;5054192;28;20778;-63
2022/09/08 00:56:33;;;;;;;0.40;0.40;;;;;;;22.78;38.36;95402.13;5031780;28;20197;-63
2022/09/08 00:59:01;;;;;;;0.40;0.30;;;;;;;23.10;37.72;95406.91;5059748;28;20764;-62
2022/09/08 01:01:32;;;;;;;0.47;0.40;;;;;;;23.20;37.39;95413.75;5031619;28;20201;-62
2022/09/08 01:04:00;;;;;;;0.30;0.30;;;;;;;22.91;37.39;95406.50;5051503;28;20199;-63
2022/09/08 01:15:11;;;;;;;0.30;0.30;;;;;;;23.25;37.26;95411.69;5070953;28;20651;-61
2022/09/08 01:17:38;;;;;;;0.30;0.30;;;;;;;22.86;37.74;95398.66;5065031;28;20202;-62
2022/09/08 01:20:08;;;;;;;0.67;0.67;;;;;;;22.95;37.81;95397.53;5049896;28;20188;-62
2022/09/08 01:22:56;;;;;;;0.40;0.40;;;;;;;22.86;38.26;95399.41;5041917;28;20707;-64
2022/09/08 01:25:27;;;;;;;0.30;0.30;;;;;;;22.69;38.69;95402.16;5048988;28;20616;-62
2022/09/08 01:28:02;;;;;;;0.40;0.40;;;;;;;22.84;38.02;95398.97;5059158;28;20201;-61
2022/09/08 01:30:31;;;;;;;0.20;0.20;;;;;;;22.90;37.94;95399.59;5053569;28;20226;-59
2022/09/08 01:33:01;;;;;;;0.30;0.30;;;;;;;22.77;37.52;95400.56;5056876;28;20302;-61
2022/09/08 01:35:31;;;;;;;0.20;0.20;;;;;;;22.76;38.35;95399.78;5060733;28;20977;-62
2022/09/08 01:37:58;;;;;;;0.67;0.63;;;;;;;22.63;38.64;95403.44;5048311;28;20196;-60
2022/09/08 01:40:25;;;;;;;0.50;0.50;;;;;;;22.45;38.70;95404.53;5048299;28;20602;-62
2022/09/08 01:42:51;;;;;;;0.47;0.47;;;;;;;22.26;39.30;95404.13;5069065;28;20337;-60
2022/09/08 01:45:18;;;;;;;0.60;0.60;;;;;;;22.46;38.29;95403.47;5038028;28;20227;-63
2022/09/08 01:47:45;;;;;;;0.43;0.43;;;;;;;22.52;38.56;95410.19;5037596;28;20220;-61
2022/09/08 01:50:12;;;;;;;0.20;0.20;;;;;;;22.51;38.03;95408.63;5045298;28;20460;-63
2022/09/08 01:52:39;;;;;;;1.40;0.87;;;;;;;22.63;38.24;95400.75;5058953;28;20314;-62
2022/09/08 01:55:06;;;;;;;0.77;0.77;;;;;;;22.58;38.51;95400.16;5042445;28;20199;-62
2022/09/08 01:57:33;;;;;;;0.13;0.13;;;;;;;22.63;38.15;95400.75;5042004;28;20529;-62
2022/09/08 02:00:00;;;;;;;1.03;0.93;;;;;;;22.57;38.54;95401.25;5070250;28;20442;-61
2022/09/08 02:02:26;;;;;;;3.43;1.50;;;;;;;22.39;39.19;95400.47;5070006;28;20590;-62
2022/09/08 02:04:53;;;;;;;0.57;0.57;;;;;;;22.54;38.63;95397.31;5060612;28;20534;-62
2022/09/08 02:07:20;;;;;;;0.17;0.17;;;;;;;22.47;39.02;95389.00;5050654;28;20199;-61
2022/09/08 02:09:47;;;;;;;0.47;0.47;;;;;;;22.65;39.16;95382.53;5059217;28;20191;-63
2022/09/08 02:12:15;;;;;;;0.87;0.67;;;;;;;22.59;39.21;95386.47;5050959;28;20231;-61
2022/09/08 02:14:41;;;;;;;0.40;0.40;;;;;;;22.40;39.56;95388.69;5049589;28;20450;-62
2022/09/08 02:17:08;;;;;;;0.60;0.60;;;;;;;22.61;38.90;95381.59;5036752;28;20447;-61
2022/09/08 02:19:35;;;;;;;0.50;0.50;;;;;;;22.56;38.97;95384.44;5068924;28;20982;-63
2022/09/08 02:22:02;;;;;;;0.30;0.30;;;;;;;22.56;39.55;95387.13;5058455;28;20527;-62
2022/09/08 02:24:29;;;;;;;3.50;1.50;;;;;;;22.39;39.46;95368.41;5067367;28;20214;-64
2022/09/08 02:26:56;;;;;;;0.90;0.83;;;;;;;22.51;39.63;95386.47;5050982;28;20840;-62
2022/09/08 02:29:23;;;;;;;0.60;0.60;;;;;;;22.55;39.36;95382.88;5031586;28;20451;-63
2022/09/08 02:31:49;;;;;;;3.47;0.80;;;;;;;22.46;39.67;95389.31;5041747;28;20300;-63
2022/09/08 02:34:16;;;;;;;0.10;0.10;;;;;;;22.44;39.93;95389.63;5058145;28;20195;-61
2022/09/08 02:36:43;;;;;;;0.30;0.30;;;;;;;22.33;40.04;95388.41;5043468;28;20288;-61
2022/09/08 02:39:16;;;;;;;0.10;0.10;;;;;;;22.56;39.99;95389.00;5042293;28;20518;-63
2022/09/08 02:41:43;;;;;;;0.17;0.17;;;;;;;22.36;40.33;95385.09;5069270;28;20636;-61
2022/09/08 02:44:11;;;;;;;0.43;0.43;;;;;;;22.48;39.87;95376.44;5046135;28;20474;-61
2022/09/08 02:46:39;;;;;;;1.10;1.00;;;;;;;22.44;39.66;95386.97;5043323;28;21048;-62
2022/09/08 02:49:08;;;;;;;0.20;0.20;;;;;;;22.09;40.73;95380.09;5050374;28;21002;-63
2022/09/08 02:51:34;;;;;;;0.60;0.60;;;;;;;22.35;39.94;95372.84;5038608;28;20483;-63
2022/09/08 02:54:02;;;;;;;2.00;1.53;;;;;;;22.02;40.76;95375.22;5057730;28;20526;-61
2022/09/08 02:56:29;;;;;;;0.20;0.20;;;;;;;22.17;40.33;95376.63;5047467;28;20780;-62
2022/09/08 02:58:56;;;;;;;0.20;0.20;;;;;;;22.30;40.14;95369.56;5057937;28;20215;-60
2022/09/08 03:01:23;;;;;;;1.70;0.67;;;;;;;22.29;40.41;95374.09;5048095;28;20237;-63
2022/09/08 03:03:50;;;;;;;1.97;1.40;;;;;;;22.43;39.93;95381.91;5066018;28;20530;-62
2022/09/08 03:06:18;;;;;;;0.20;0.20;;;;;;;22.49;40.03;95384.13;5044809;28;20192;-60
2022/09/08 03:08:49;;;;;;;1.03;0.90;;;;;;;22.37;40.35;95381.31;5069028;28;20650;-64
2022/09/08 03:11:16;;;;;;;0.60;0.60;;;;;;;22.56;39.91;95386.31;5043041;28;20444;-60
2022/09/08 03:13:43;;;;;;;0.80;0.77;;;;;;;22.30;40.26;95382.91;5043280;28;20961;-64
2022/09/08 03:16:10;;;;;;;0.90;0.90;;;;;;;22.31;40.40;95382.59;5057504;28;20543;-61
2022/09/08 03:18:37;;;;;;;0.20;0.20;;;;;;;22.28;40.51;95380.53;5052308;28;20238;-62
2022/09/08 03:21:10;;;;;;;0.40;0.40;;;;;;;22.41;40.59;95376.91;5068836;28;20436;-64
2022/09/08 03:23:38;;;;;;;0.40;0.40;;;;;;;22.24;40.58;95374.28;5069425;28;20523;-63
2022/09/08 03:26:25;;;;;;;0.53;0.53;;;;;;;22.29;40.82;95386.66;5038491;28;21676;-63
2022/09/08 03:28:52;;;;;;;0.80;0.80;;;;;;;22.48;40.31;95390.53;5061032;28;21085;-62
2022/09/08 03:31:20;;;;;;;0.77;0.77;;;;;;;22.45;40.24;95388.53;5047332;28;20523;-60
2022/09/08 03:33:48;;;;;;;0.53;0.53;;;;;;;22.11;40.83;95393.91;5039403;28;20478;-61
2022/09/08 03:36:15;;;;;;;1.80;0.93;;;;;;;22.08;40.68;95397.19;5037685;28;20539;-63
2022/09/08 03:38:42;;;;;;;0.57;0.50;;;;;;;21.85;40.83;95395.81;5060870;28;20524;-61
2022/09/08 03:41:12;;;;;;;0.60;0.40;;;;;;;21.94;41.31;95401.94;5064237;28;20452;-61
2022/09/08 03:43:49;;;;;;;0.80;0.80;;;;;;;21.86;41.02;95402.72;5068866;28;21024;-61
2022/09/08 03:46:16;;;;;;;0.47;0.47;;;;;;;21.97;41.18;95403.97;5066856;28;20459;-63
2022/09/08 03:48:44;;;;;;;0.50;0.50;;;;;;;22.02;40.65;95401.16;5043563;28;20437;-63
2022/09/08 03:51:24;;;;;;;0.90;0.77;;;;;;;21.91;40.93;95405.22;5042683;28;20451;-62
2022/09/08 03:53:52;;;;;;;0.90;0.70;;;;;;;21.96;40.37;95394.41;5036176;28;20489;-61
2022/09/08 03:56:20;;;;;;;0.30;0.30;;;;;;;22.02;40.49;95401.16;5042490;28;20530;-60
2022/09/08 03:58:47;;;;;;;0.30;0.30;;;;;;;21.84;41.39;95395.00;5061056;28;20786;-62
2022/09/08 04:01:17;;;;;;;0.43;0.43;;;;;;;21.72;41.59;95402.03;5052285;28;20526;-61
2022/09/08 04:03:45;;;;;;;1.67;1.13;;;;;;;21.79;41.14;95397.03;5033654;28;21035;-62
2022/09/08 04:06:13;;;;;;;1.03;0.53;;;;;;;21.70;41.41;95393.56;5041432;28;20436;-63
2022/09/08 04:08:40;;;;;;;0.63;0.63;;;;;;;21.73;40.94;95403.63;5040841;28;20442;-63
2022/09/08 04:11:08;;;;;;;0.57;0.57;;;;;;;21.77;41.14;95400.00;5043913;28;20440;-63
2022/09/08 04:13:35;;;;;;;0.30;0.30;;;;;;;21.79;41.14;95402.38;5033647;28;20546;-64
2022/09/08 04:16:03;;;;;;;1.47;1.27;;;;;;;21.43;41.20;95404.50;5052353;28;20439;-60
2022/09/08 04:18:31;;;;;;;0.30;0.30;;;;;;;21.38;41.44;95407.31;5052771;28;20443;-62
2022/09/08 04:21:03;;;;;;;0.30;0.30;;;;;;;21.52;41.16;95411.44;5058078;28;20530;-61
2022/09/08 04:23:30;;;;;;;0.50;0.50;;;;;;;21.73;40.73;95414.28;5056411;28;21067;-62
2022/09/08 04:26:15;;;;;;;0.47;0.47;;;;;;;21.05;43.41;95413.03;5042306;28;20530;-64
2022/09/08 04:28:42;;;;;;;0.27;0.27;;;;;;;21.12;42.72;95409.91;5038388;28;20537;-60
2022/09/08 04:31:14;;;;;;;0.43;0.43;;;;;;;21.07;43.03;95410.84;5052371;28;20439;-62
2022/09/08 04:33:42;;;;;;;0.63;0.63;;;;;;;21.29;42.35;95409.19;5066151;28;20479;-60
2022/09/08 04:36:16;;;;;;;0.40;0.40;;;;;;;21.33;42.65;95404.81;5061959;28;20449;-61
2022/09/08 04:38:53;;;;;;;0.30;0.30;;;;;;;21.29;42.25;95401.97;5072490;28;20465;-61
2022/09/08 04:41:20;;;;;;;1.40;0.80;;;;;;;21.44;42.02;95395.44;5072463;28;20196;-61
2022/09/08 04:43:47;;;;;;;1.00;0.97;;;;;;;21.62;41.41;95397.03;5041402;28;20471;-62
2022/09/08 04:46:16;;;;;;;2.47;0.63;;;;;;;21.70;41.54;95401.56;5060111;28;20443;-61
2022/09/08 04:48:44;;;;;;;0.43;0.43;;;;;;;21.31;41.95;95407.00;5056472;28;20455;-62
2022/09/08 04:51:13;;;;;;;1.53;1.43;;;;;;;21.74;41.41;95399.84;5039160;28;20440;-64
2022/09/08 04:53:40;;;;;;;6.67;4.80;;;;;;;21.93;41.11;95408.38;5036198;28;20474;-62
2022/09/08 04:56:09;;;;;;;4.07;3.70;;;;;;;22.24;40.42;95409.00;5047060;28;20436;-62
2022/09/08 04:58:38;;;;;;;4.93;1.63;;;;;;;22.37;40.41;95408.00;5060544;28;20448;-62
2022/09/08 05:01:07;;;;;;;0.40;0.40;;;;;;;22.23;40.91;95407.41;5055429;28;20443;-60
2022/09/08 05:03:35;;;;;;;0.73;0.73;;;;;;;22.16;40.88;95412.44;5038213;28;20913;-61
2022/09/08 05:06:07;;;;;;;0.70;0.70;;;;;;;22.13;40.83;95410.41;5065532;28;20443;-60
2022/09/08 05:08:34;;;;;;;0.70;0.37;;;;;;;22.08;40.58;95407.88;5065130;28;20453;-61
2022/09/08 05:11:01;;;;;;;8.53;6.30;;;;;;;22.54;40.39;95407.97;5072016;28;20588;-61
2022/09/08 05:13:29;;;;;;;11.67;9.80;;;;;;;22.62;40.25;95409.88;5049526;28;20484;-62
2022/09/08 05:16:14;;;;;;;4.33;2.10;;;;;;;22.29;41.11;95427.50;5036995;28;20426;-61
2022/09/08 05:18:45;;;;;;;0.90;0.87;;;;;;;22.61;40.47;95419.00;5059284;28;20508;-60
2022/09/08 05:21:12;;;;;;;0.37;0.37;;;;;;;21.36;42.57;95430.84;5065141;28;20446;-60
2022/09/08 05:23:39;;;;;;;0.80;0.70;;;;;;;22.01;41.27;95420.91;5061944;28;21400;-60
2022/09/08 05:26:09;;;;;;;0.70;0.70;;;;;;;22.38;40.27;95406.91;5039929;28;20467;-61
2022/09/08 05:28:38;;;;;;;0.40;0.40;;;;;;;22.68;40.30;95427.31;5060564;28;20449;-61
2022/09/08 05:31:19;;;;;;;0.30;0.30;;;;;;;22.93;39.89;95431.00;5054424;28;20201;-60
2022/09/08 05:33:47;;;;;;;0.63;0.63;;;;;;;22.98;39.85;95428.94;5040956;28;20267;-61
2022/09/08 05:36:20;;;;;;;0.40;0.40;;;;;;;23.00;39.16;95421.41;5033306;28;20684;-60
2022/09/08 05:38:48;;;;;;;0.27;0.27;;;;;;;22.94;39.67;95427.22;5039030;28;20201;-60
2022/09/08 05:41:15;;;;;;;0.40;0.40;;;;;;;22.12;41.61;95432.84;5052920;28;20557;-60
2022/09/08 05:43:42;;;;;;;0.40;0.40;;;;;;;22.34;40.75;95432.69;5070458;28;20569;-60
2022/09/08 05:46:10;;;;;;;0.90;0.90;;;;;;;22.66;40.53;95426.06;5070369;28;20488;-65
2022/09/08 05:48:44;;;;;;;0.47;0.47;;;;;;;22.50;41.30;95431.09;5059200;28;20666;-64
2022/09/08 05:51:17;;;;;;;0.50;0.50;;;;;;;22.94;40.33;95425.34;5040902;28;20225;-63
2022/09/08 05:53:44;;;;;;;0.20;0.20;;;;;;;23.08;39.35;95428.59;5064343;28;20224;-65
2022/09/08 05:56:12;;;;;;;0.50;0.50;;;;;;;23.08;39.56;95423.22;5045372;28;20197;-64
2022/09/08 05:58:39;;;;;;;0.87;0.87;;;;;;;22.94;40.13;95421.88;5031691;28;20280;-65
2022/09/08 06:01:10;;;;;;;1.50;1.27;;;;;;;23.35;38.87;95426.63;5043640;28;20640;-67
2022/09/08 06:03:37;;;;;;;0.87;0.50;;;;;;;22.60;40.62;95433.47;5044511;28;20382;-64
2022/09/08 06:06:09;;;;;;;0.30;0.30;;;;;;;22.69;39.96;95426.22;5036859;28;20189;-64
2022/09/08 06:08:39;;;;;;;0.60;0.60;;;;;;;22.37;39.60;95428.59;5063430;28;20620;-66
2022/09/08 06:11:07;;;;;;;0.80;0.63;;;;;;;22.78;40.19;95429.66;5060165;28;20232;-65
2022/09/08 06:13:35;;;;;;;1.27;1.07;;;;;;;23.28;39.38;95426.31;5053726;28;20227;-64
2022/09/08 06:16:07;;;;;;;3.60;0.60;;;;;;;22.91;40.27;95426.00;5056211;28;20180;-65
2022/09/08 06:18:36;;;;;;;0.50;0.50;;;;;;;23.43;39.17;95425.81;5070306;28;20609;-64
2022/09/08 06:21:08;;;;;;;0.77;0.77;;;;;;;23.73;38.03;95427.34;5049455;28;20296;-64
2022/09/08 06:23:35;;;;;;;0.67;0.67;;;;;;;22.68;41.08;95429.97;5050848;28;20261;-64
2022/09/08 06:26:21;;;;;;;1.13;0.77;;;;;;;22.64;40.61;95445.09;5065001;28;20226;-64
2022/09/08 06:28:58;;;;;;;1.60;0.50;;;;;;;22.75;40.76;95445.53;5041203;28;20204;-64
2022/09/08 06:31:31;;;;;;;0.40;0.40;;;;;;;23.06;40.35;95435.38;5050494;28;20199;-66
2022/09/08 06:34:02;;;;;;;0.50;0.50;;;;;;;22.73;41.09;95442.38;5061773;28;20231;-66
2022/09/08 06:36:45;;;;;;;0.80;0.80;;;;;;;23.33;39.88;95434.16;5051367;28;20200;-64
2022/09/08 06:39:23;;;;;;;0.50;0.50;;;;;;;23.39;40.33;95438.25;5062587;28;20195;-66
2022/09/08 06:41:57;;;;;;;5.83;1.20;;;;;;;23.70;38.52;95428.00;5070034;28;20325;-66
2022/09/08 06:44:29;;;;;;;0.30;0.30;;;;;;;23.13;40.59;95444.47;5056874;28;20289;-64
2022/09/08 06:46:57;;;;;;;1.23;1.20;;;;;;;23.69;39.78;95437.13;5030477;28;20201;-64
2022/09/08 06:49:28;;;;;;;0.37;0.37;;;;;;;23.27;40.68;95446.91;5055861;28;20227;-64
2022/09/08 06:52:18;;;;;;;0.70;0.70;;;;;;;23.17;41.09;95451.84;5041517;28;20195;-65
2022/09/08 06:55:02;;;;;;;0.40;0.40;;;;;;;23.70;39.93;95449.41;5069739;28;20257;-68
2022/09/08 06:57:45;;;;;;;0.60;0.60;;;;;;;24.24;38.42;95453.75;5048162;28;20660;-65
2022/09/08 07:00:46;;;;;;;1.70;0.60;;;;;;;23.59;40.17;95458.91;5051637;28;20192;-67
2022/09/08 07:03:40;;;;;;;0.53;0.53;;;;;;;24.45;37.57;95454.50;5059076;28;20715;-68
2022/09/08 07:06:09;;;;;;;0.53;0.53;;;;;;;24.83;37.00;95460.50;5042876;28;20191;-66
2022/09/08 07:08:59;;;;;;;0.30;0.30;;;;;;;23.81;40.20;95453.25;5043932;28;20289;-65
2022/09/08 07:11:38;;;;;;;0.70;0.70;;;;;;;24.72;38.56;95463.91;5046145;28;20259;-65
2022/09/08 07:14:11;;;;;;;10.23;1.50;;;;;;;24.78;37.71;95462.59;5069361;28;20667;-66
2022/09/08 07:16:50;;;;;;;0.43;0.43;;;;;;;24.70;37.24;95450.84;5060466;28;20273;-65
2022/09/08 07:19:24;;;;;;;0.43;0.43;;;;;;;24.64;37.58;95460.19;5060466;28;20208;-66
2022/09/08 07:22:31;;;;;;;2.40;1.33;;;;;;;24.71;36.81;95451.63;5029836;28;20204;-64
2022/09/08 07:25:13;;;;;;;0.33;0.20;;;;;;;24.96;37.44;95447.91;5044863;28;20847;-64
2022/09/08 07:27:43;;;;;;;1.07;0.83;;;;;;;25.28;36.63;95451.63;5037100;28;20201;-65
2022/09/08 07:30:15;;;;;;;0.27;0.27;;;;;;;24.69;37.48;95454.59;5029668;28;20627;-64
2022/09/08 07:32:56;;;;;;;1.13;0.90;;;;;;;24.75;38.15;95453.31;5045510;28;20212;-65
2022/09/08 07:35:45;;;;;;;0.47;0.47;;;;;;;25.58;35.66;95453.00;5057219;28;20204;-66
2022/09/08 07:38:21;;;;;;;1.47;0.93;;;;;;;26.21;34.17;95449.56;5059535;28;20300;-65
2022/09/08 07:40:51;;;;;;;0.30;0.30;;;;;;;26.30;33.92;95447.53;5044903;28;20199;-65
2022/09/08 07:43:18;;;;;;;7.13;2.20;;;;;;;25.58;34.59;95455.69;5066604;28;20258;-64
2022/09/08 07:45:53;;;;;;;0.50;0.50;;;;;;;25.06;34.86;95458.19;5063856;28;20204;-65
2022/09/08 07:48:26;;;;;;;0.40;0.40;;;;;;;25.47;33.94;95451.88;5058862;28;20217;-64
2022/09/08 07:51:19;;;;;;;0.13;0.13;;;;;;;26.12;33.81;95451.59;5052690;28;20635;-63
2022/09/08 07:53:55;;;;;;;0.37;0.37;;;;;;;26.25;33.64;95450.44;5045428;28;20223;-65
2022/09/08 07:56:39;;;;;;;0.43;0.37;;;;;;;26.31;33.27;95438.34;5052250;28;20235;-65
2022/09/08 07:59:32;;;;;;;0.40;0.40;;;;;;;26.53;33.57;95447.78;5033249;28;20211;-64
2022/09/08 08:02:05;;;;;;;0.80;0.80;;;;;;;26.33;33.24;95452.19;5061636;28;20265;-65
2022/09/08 08:04:51;;;;;;;0.77;0.77;;;;;;;25.84;33.18;95439.97;5057629;28;20197;-64
2022/09/08 08:07:26;;;;;;;0.67;0.67;;;;;;;25.92;33.63;95433.72;5034658;28;20197;-63
2022/09/08 08:10:16;;;;;;;0.70;0.70;;;;;;;26.04;33.15;95441.75;5062003;28;20226;-64
2022/09/08 08:12:59;;;;;;;0.33;0.33;;;;;;;27.01;31.52;95434.09;5058563;28;20269;-64
2022/09/08 08:15:25;;;;;;;0.57;0.57;;;;;;;26.70;31.85;95440.22;5059305;28;20204;-63
2022/09/08 08:18:04;;;;;;;0.60;0.60;;;;;;;27.28;32.07;95432.47;5066519;28;20193;-64
2022/09/08 08:20:50;;;;;;;0.33;0.33;;;;;;;26.76;33.18;95428.09;5052316;28;20254;-65
2022/09/08 08:23:42;;;;;;;1.07;0.97;;;;;;;26.90;33.06;95438.41;5048285;28;20212;-65
2022/09/08 08:26:27;;;;;;;0.50;0.50;;;;;;;27.32;33.09;95438.72;5055834;28;20200;-61
2022/09/08 08:29:12;;;;;;;0.60;0.50;;;;;;;27.03;32.26;95429.94;5071293;28;20250;-60
2022/09/08 08:31:45;;;;;;;0.63;0.60;;;;;;;26.72;32.88;95435.28;5037785;28;20276;-62
2022/09/08 08:34:23;;;;;;;1.27;1.17;;;;;;;26.98;33.45;95429.41;5038722;28;20754;-63
2022/09/08 08:36:55;;;;;;;0.80;0.80;;;;;;;27.21;34.23;95433.06;5039368;28;20697;-62
2022/09/08 08:39:23;;;;;;;3.37;2.77;;;;;;;27.78;31.78;95419.03;5065538;28;20993;-63
2022/09/08 08:42:17;;;;;;;2.13;1.90;;;;;;;28.10;31.90;95411.69;5037897;28;20193;-60
2022/09/08 08:45:25;;;;;;;0.83;0.77;;;;;;;27.89;30.59;95409.28;5064054;28;20220;-61
2022/09/08 08:48:01;;;;;;;0.43;0.43;;;;;;;28.62;29.41;95404.66;5065621;28;20659;-60
2022/09/08 08:50:51;;;;;;;0.23;0.23;;;;;;;29.12;29.35;95410.97;5043879;28;20197;-61
2022/09/08 08:53:30;;;;;;;1.07;0.50;;;;;;;28.31;31.61;95394.03;5045698;28;20224;-61
2022/09/08 08:56:44;;;;;;;0.50;0.50;;;;;;;27.95;30.71;95387.16;5038464;28;20726;-61
2022/09/08 08:59:21;;;;;;;1.07;0.80;;;;;;;28.87;30.07;95378.13;5070677;28;20208;-61
2022/09/08 09:02:16;;;;;;;0.50;0.50;;;;;;;29.17;29.53;95381.75;5058750;28;20200;-61
2022/09/08 09:04:56;;;;;;;0.50;0.50;;;;;;;28.54;31.04;95381.38;5031731;28;20263;-61
2022/09/08 09:08:05;;;;;;;0.40;0.40;;;;;;;27.76;30.84;95372.81;5061997;28;20212;-60
2022/09/08 09:10:52;;;;;;;0.83;0.70;;;;;;;28.09;30.57;95365.09;5049293;28;20215;-61
2022/09/08 09:13:42;;;;;;;1.60;1.50;;;;;;;28.90;30.94;95356.59;5041336;28;20228;-62
2022/09/08 09:16:18;;;;;;;0.57;0.57;;;;;;;29.04;30.33;95355.28;5032119;28;20679;-61
2022/09/08 09:19:02;;;;;;;2.13;0.93;;;;;;;29.24;29.35;95348.69;5043912;28;20651;-62
2022/09/08 09:22:22;;;;;;;0.40;0.40;;;;;;;29.58;29.04;95342.28;5051263;28;20231;-61
2022/09/08 09:25:02;;;;;;;0.60;0.60;;;;;;;29.32;29.89;95350.38;5075044;28;20191;-60
2022/09/08 09:28:04;;;;;;;0.73;0.73;;;;;;;29.73;29.46;95339.41;5051551;28;20585;-62
2022/09/08 09:30:43;;;;;;;9.70;7.20;;;;;;;30.17;28.85;95331.47;5051450;28;20202;-63
2022/09/08 09:33:27;;;;;;;1.40;1.30;;;;;;;30.16;29.06;95323.72;5050719;28;20223;-62
2022/09/08 09:36:11;;;;;;;1.07;1.03;;;;;;;29.52;30.44;95335.63;5050658;28;20197;-60
2022/09/08 09:39:05;;;;;;;0.90;0.90;;;;;;;30.19;29.58;95329.16;5039408;28;20196;-61
2022/09/08 09:41:42;;;;;;;0.53;0.53;;;;;;;29.89;30.23;95314.91;5069024;28;20274;-60
2022/09/08 09:44:08;;;;;;;0.40;0.40;;;;;;;30.29;29.48;95327.75;5047532;28;20236;-61
2022/09/08 09:46:57;;;;;;;1.50;0.97;;;;;;;30.45;28.64;95326.41;5062287;28;20220;-60
2022/09/08 09:49:30;;;;;;;1.80;1.23;;;;;;;29.99;29.94;95326.97;5038242;28;20255;-59
2022/09/08 09:52:06;;;;;;;1.43;1.33;;;;;;;30.86;28.47;95317.13;5030799;28;20200;-62
2022/09/08 09:54:49;;;;;;;0.60;0.60;;;;;;;29.69;29.20;95291.88;5055997;28;20254;-61
2022/09/08 09:57:31;;;;;;;0.63;0.63;;;;;;;30.85;27.93;95302.06;5037636;28;20260;-61
2022/09/08 10:00:14;;;;;;;0.80;0.80;;;;;;;31.31;28.06;95290.78;5045539;28;20197;-61
2022/09/08 10:02:54;;;;;;;0.53;0.53;;;;;;;31.05;28.21;95294.47;5042903;28;20210;-60
2022/09/08 10:05:23;;;;;;;0.60;0.60;;;;;;;30.52;28.75;95283.19;5056338;28;20200;-64
2022/09/08 10:08:14;;;;;;;1.93;0.77;;;;;;;30.68;28.84;95285.63;5037138;28;20732;-64
2022/09/08 10:10:40;;;;;;;4.30;3.37;;;;;;;31.52;27.49;95278.16;5064152;28;20212;-63
2022/09/08 10:13:10;;;;;;;1.10;1.10;;;;;;;30.96;27.40;95275.09;5058339;28;20615;-62
2022/09/08 10:15:52;;;;;;;1.83;1.33;;;;;;;30.51;28.07;95270.03;5054624;28;20232;-64
2022/09/08 10:18:22;;;;;;;1.87;1.63;;;;;;;30.94;28.28;95268.47;5038612;28;20261;-62
2022/09/08 10:21:07;;;;;;;0.90;0.90;;;;;;;30.66;28.60;95256.25;5051041;28;20781;-63
2022/09/08 10:23:50;;;;;;;1.80;1.67;;;;;;;31.30;27.34;95257.50;5069810;28;20191;-62
2022/09/08 10:26:44;;;;;;;1.47;1.37;;;;;;;31.04;27.89;95259.66;5064781;28;20211;-64
2022/09/08 10:29:21;;;;;;;0.70;0.70;;;;;;;31.48;28.22;95252.22;5049357;28;20265;-61
2022/09/08 10:32:06;;;;;;;0.60;0.60;;;;;;;31.82;27.24;95245.41;5049829;28;20207;-64
2022/09/08 10:34:33;;;;;;;0.97;0.97;;;;;;;31.17;27.97;95244.69;5049683;28;20591;-64
2022/09/08 10:37:40;;;;;;;0.47;0.47;;;;;;;31.37;27.95;95243.28;5049664;28;20254;-62
2022/09/08 10:40:26;;;;;;;0.70;0.70;;;;;;;31.59;27.64;95228.66;5042545;28;20651;-63
2022/09/08 10:43:18;;;;;;;1.17;1.00;;;;;;;31.66;27.90;95215.16;5054691;28;20886;-63
2022/09/08 10:46:20;;;;;;;1.30;0.90;;;;;;;31.11;28.65;95232.66;5060667;28;20226;-63
2022/09/08 10:48:53;;;;;;;0.77;0.63;;;;;;;31.78;27.56;95226.44;5062233;28;20199;-60
2022/09/08 10:51:38;;;;;;;0.73;0.73;;;;;;;32.31;27.34;95234.72;5049718;28;20269;-64
2022/09/08 10:54:44;;;;;;;1.53;1.33;;;;;;;32.46;27.07;95230.88;5049571;28;20227;-61
2022/09/08 10:57:49;;;;;;;1.00;0.70;;;;;;;31.89;27.33;95223.78;5048897;28;20208;-61
2022/09/08 11:00:19;;;;;;;0.87;0.87;;;;;;;32.14;26.40;95224.59;5075575;28;20206;-65
2022/09/08 11:03:08;;;;;;;0.50;0.50;;;;;;;32.92;25.51;95216.53;5049583;28;20196;-64
2022/09/08 11:05:44;;;;;;;1.00;0.80;;;;;;;32.70;25.27;95216.53;5049272;28;20542;-62
2022/09/08 11:08:17;;;;;;;1.50;1.30;;;;;;;31.71;26.49;95218.28;5058913;28;20191;-61
2022/09/08 11:11:17;;;;;;;1.03;0.60;;;;;;;32.17;26.34;95215.69;5052777;28;20212;-63
2022/09/08 11:14:06;;;;;;;0.43;0.43;;;;;;;32.08;26.58;95204.44;5053155;28;20226;-63
2022/09/08 11:17:00;;;;;;;0.50;0.50;;;;;;;32.74;25.99;95201.03;5055988;28;20232;-61
2022/09/08 11:19:36;;;;;;;1.47;1.10;;;;;;;32.14;28.64;95199.41;5060080;28;20191;-62
2022/09/08 11:22:21;;;;;;;3.73;1.20;;;;;;;33.35;26.25;95193.56;5064520;28;20657;-62
2022/09/08 11:25:16;;;;;;;0.77;0.60;;;;;;;33.15;25.93;95190.53;5062248;28;20298;-60
2022/09/08 11:28:04;;;;;;;0.67;0.67;;;;;;;33.44;26.01;95196.63;5059684;28;20208;-62
2022/09/08 11:30:52;;;;;;;0.70;0.70;;;;;;;32.77;27.39;95186.66;5056061;28;20651;-61
2022/09/08 11:33:47;;;;;;;0.33;0.33;;;;;;;33.14;26.42;95190.94;5042750;28;20227;-63
2022/09/08 11:36:41;;;;;;;0.70;0.70;;;;;;;33.05;25.84;95202.16;5055652;28;20208;-62
2022/09/08 11:39:27;;;;;;;1.17;1.00;;;;;;;33.70;25.28;95198.91;5056109;28;20587;-59
2022/09/08 11:41:54;;;;;;;1.47;1.10;;;;;;;32.72;26.45;95195.22;5043211;28;20649;-61
2022/09/08 11:44:26;;;;;;;0.77;0.60;;;;;;;33.55;25.31;95202.84;5055783;28;20652;-61
2022/09/08 11:47:03;;;;;;;0.67;0.67;;;;;;;33.71;24.71;95197.72;5047938;28;20223;-61
2022/09/08 11:49:58;;;;;;;0.67;0.67;;;;;;;33.39;24.95;95199.78;5062082;28;20205;-61
2022/09/08 11:52:54;;;;;;;0.57;0.57;;;;;;;34.05;25.15;95189.81;5047225;28;20188;-62
2022/09/08 11:56:28;;;;;;;0.80;0.77;;;;;;;33.97;24.87;95191.78;5043391;28;20193;-61
2022/09/08 11:59:01;;;;;;;0.50;0.50;;;;;;;34.01;25.45;95191.78;5055800;28;20196;-61
2022/09/08 12:01:49;;;;;;;2.40;1.60;;;;;;;33.93;25.59;95196.44;5047065;28;20282;-61
2022/09/08 12:04:32;;;;;;;0.70;0.70;;;;;;;33.74;25.59;95199.66;5055750;28;20239;-66
2022/09/08 12:07:16;;;;;;;1.53;0.93;;;;;;;34.53;25.04;95180.53;5055257;28;20197;-63
2022/09/08 12:10:01;;;;;;;2.30;2.00;;;;;;;33.94;25.60;95189.84;5043849;28;20732;-59
2022/09/08 12:12:31;;;;;;;3.93;1.93;;;;;;;34.31;24.50;95189.22;5055985;28;20223;-62
2022/09/08 12:15:32;;;;;;;2.87;2.43;;;;;;;33.96;24.50;95192.19;5055820;28;20224;-61
2022/09/08 12:18:28;;;;;;;1.07;0.97;;;;;;;33.73;24.93;95176.34;5047752;28;20183;-61
2022/09/08 12:21:07;;;;;;;1.67;0.70;;;;;;;34.21;24.54;95190.09;5061069;28;20679;-62
2022/09/08 12:23:47;;;;;;;1.13;1.00;;;;;;;34.52;24.08;95191.84;5065119;28;20666;-63